sensor_id;sensor_type;location;lat;lon;timestamp;temperature;humidity
62555;DHT22;48610;52.144;8.624;2023-11-21T00:01:20;7.20;99.90
62555;DHT22;48610;52.144;8.624;2023-11-21T00:04:21;7.20;99.90
62555;DHT22;48610;52.144;8.624;2023-11-21T00:07:21;7.30;99.90
62555;DHT22;48610;52.144;8.624;2023-11-21T00:10:22;7.40;99.90
62555;DHT22;48610;52.144;8.624;2023-11-21T00:13:23;7.40;99.90
62555;DHT22;48610;52.144;8.624;2023-11-21T00:16:23;7.40;99.90
62555;DHT22;48610;52.144;8.624;2023-11-21T00:19:25;7.50;99.90
62555;DHT22;48610;52.144;8.624;2023-11-21T00:22:26;7.70;99.90
62555;DHT22;48610;52.144;8.624;2023-11-21T00:25:26;7.80;99.90
62555;DHT22;48610;52.144;8.624;2023-11-21T00:28:27;7.90;99.90
62555;DHT22;48610;52.144;8.624;2023-11-21T00:31:28;8.00;99.90
62555;DHT22;48610;52.144;8.624;2023-11-21T00:34:28;8.10;99.90
62555;DHT22;48610;52.144;8.624;2023-11-21T00:37:29;8.10;99.90
62555;DHT22;48610;52.144;8.624;2023-11-21T00:40:29;8.10;99.90
62555;DHT22;48610;52.144;8.624;2023-11-21T00:43:30;8.20;99.90
62555;DHT22;48610;52.144;8.624;2023-11-21T00:46:31;8.30;99.90
62555;DHT22;48610;52.144;8.624;2023-11-21T00:49:32;8.40;99.90
62555;DHT22;48610;52.144;8.624;2023-11-21T00:52:33;8.40;99.90
62555;DHT22;48610;52.144;8.624;2023-11-21T00:55:33;8.40;99.90
62555;DHT22;48610;52.144;8.624;2023-11-21T00:58:35;8.40;99.90
62555;DHT22;48610;52.144;8.624;2023-11-21T01:01:36;8.30;99.90
62555;DHT22;48610;52.144;8.624;2023-11-21T01:04:38;8.20;99.90
62555;DHT22;48610;52.144;8.624;2023-11-21T01:07:38;8.20;99.90
62555;DHT22;48610;52.144;8.624;2023-11-21T01:10:39;8.10;99.90
62555;DHT22;48610;52.144;8.624;2023-11-21T01:13:40;8.10;99.90
62555;DHT22;48610;52.144;8.624;2023-11-21T01:16:41;8.20;99.90
62555;DHT22;48610;52.144;8.624;2023-11-21T01:19:41;8.30;99.90
62555;DHT22;48610;52.144;8.624;2023-11-21T01:22:42;8.40;99.90
62555;DHT22;48610;52.144;8.624;2023-11-21T01:25:43;8.50;99.90
62555;DHT22;48610;52.144;8.624;2023-11-21T01:28:43;8.50;99.90
62555;DHT22;48610;52.144;8.624;2023-11-21T01:31:44;8.70;99.90
62555;DHT22;48610;52.144;8.624;2023-11-21T01:34:45;8.70;99.90
62555;DHT22;48610;52.144;8.624;2023-11-21T01:37:45;8.80;99.90
62555;DHT22;48610;52.144;8.624;2023-11-21T01:40:46;8.80;99.90
62555;DHT22;48610;52.144;8.624;2023-11-21T01:43:46;8.90;99.90
62555;DHT22;48610;52.144;8.624;2023-11-21T01:46:47;8.90;99.90
62555;DHT22;48610;52.144;8.624;2023-11-21T01:49:48;8.90;99.90
62555;DHT22;48610;52.144;8.624;2023-11-21T01:52:49;8.90;99.90
62555;DHT22;48610;52.144;8.624;2023-11-21T01:55:49;8.80;99.90
62555;DHT22;48610;52.144;8.624;2023-11-21T01:58:50;8.80;99.90
62555;DHT22;48610;52.144;8.624;2023-11-21T02:01:51;8.70;99.90
62555;DHT22;48610;52.144;8.624;2023-11-21T02:04:52;8.70;99.90
62555;DHT22;48610;52.144;8.624;2023-11-21T02:07:52;8.80;99.90
62555;DHT22;48610;52.144;8.624;2023-11-21T02:10:53;8.90;99.90
62555;DHT22;48610;52.144;8.624;2023-11-21T02:13:53;8.90;99.90
62555;DHT22;48610;52.144;8.624;2023-11-21T02:16:55;9.00;99.90
62555;DHT22;48610;52.144;8.624;2023-11-21T02:19:57;9.00;99.90
62555;DHT22;48610;52.144;8.624;2023-11-21T02:22:58;9.00;99.90
62555;DHT22;48610;52.144;8.624;2023-11-21T02:25:58;9.00;99.90
62555;DHT22;48610;52.144;8.624;2023-11-21T02:28:59;8.90;99.90
62555;DHT22;48610;52.144;8.624;2023-11-21T02:32:01;9.00;99.90
62555;DHT22;48610;52.144;8.624;2023-11-21T02:35:01;9.00;99.90
62555;DHT22;48610;52.144;8.624;2023-11-21T02:38:02;9.00;99.90
62555;DHT22;48610;52.144;8.624;2023-11-21T02:41:03;9.00;99.90
62555;DHT22;48610;52.144;8.624;2023-11-21T02:44:05;9.00;99.90
62555;DHT22;48610;52.144;8.624;2023-11-21T02:47:06;9.00;99.90
62555;DHT22;48610;52.144;8.624;2023-11-21T02:50:07;9.10;99.90
62555;DHT22;48610;52.144;8.624;2023-11-21T02:53:09;9.10;99.90
62555;DHT22;48610;52.144;8.624;2023-11-21T02:56:11;9.10;99.90
62555;DHT22;48610;52.144;8.624;2023-11-21T02:59:11;9.10;99.90
62555;DHT22;48610;52.144;8.624;2023-11-21T03:02:12;9.20;99.90
62555;DHT22;48610;52.144;8.624;2023-11-21T03:05:13;9.20;99.90
62555;DHT22;48610;52.144;8.624;2023-11-21T03:08:13;9.30;99.90
62555;DHT22;48610;52.144;8.624;2023-11-21T03:11:14;9.30;99.90
62555;DHT22;48610;52.144;8.624;2023-11-21T03:14:14;9.30;99.90
62555;DHT22;48610;52.144;8.624;2023-11-21T03:17:15;9.30;99.90
62555;DHT22;48610;52.144;8.624;2023-11-21T03:20:16;9.30;99.90
62555;DHT22;48610;52.144;8.624;2023-11-21T03:23:17;9.30;99.90
62555;DHT22;48610;52.144;8.624;2023-11-21T03:26:17;9.30;99.90
62555;DHT22;48610;52.144;8.624;2023-11-21T03:29:18;9.30;99.90
62555;DHT22;48610;52.144;8.624;2023-11-21T03:32:18;9.20;99.90
62555;DHT22;48610;52.144;8.624;2023-11-21T03:35:19;9.30;99.90
62555;DHT22;48610;52.144;8.624;2023-11-21T03:38:21;9.30;99.90
62555;DHT22;48610;52.144;8.624;2023-11-21T03:41:22;9.20;99.90
62555;DHT22;48610;52.144;8.624;2023-11-21T03:44:22;9.20;99.90
62555;DHT22;48610;52.144;8.624;2023-11-21T03:47:23;9.20;99.90
62555;DHT22;48610;52.144;8.624;2023-11-21T03:50:23;9.30;99.90
62555;DHT22;48610;52.144;8.624;2023-11-21T03:53:24;9.30;99.90
62555;DHT22;48610;52.144;8.624;2023-11-21T03:56:24;9.30;99.90
62555;DHT22;48610;52.144;8.624;2023-11-21T03:59:25;9.30;99.90
62555;DHT22;48610;52.144;8.624;2023-11-21T04:02:25;9.30;99.90
62555;DHT22;48610;52.144;8.624;2023-11-21T04:05:27;9.30;99.90
62555;DHT22;48610;52.144;8.624;2023-11-21T04:08:28;9.30;99.90
62555;DHT22;48610;52.144;8.624;2023-11-21T04:11:29;9.40;99.90
62555;DHT22;48610;52.144;8.624;2023-11-21T04:14:30;9.40;99.90
62555;DHT22;48610;52.144;8.624;2023-11-21T04:17:31;9.50;99.90
62555;DHT22;48610;52.144;8.624;2023-11-21T04:20:31;9.50;99.90
62555;DHT22;48610;52.144;8.624;2023-11-21T04:23:32;9.40;99.90
62555;DHT22;48610;52.144;8.624;2023-11-21T04:26:33;9.40;99.90
62555;DHT22;48610;52.144;8.624;2023-11-21T04:29:34;9.50;99.90
62555;DHT22;48610;52.144;8.624;2023-11-21T04:32:35;9.50;99.90
62555;DHT22;48610;52.144;8.624;2023-11-21T04:35:36;9.50;99.90
62555;DHT22;48610;52.144;8.624;2023-11-21T04:38:36;9.40;99.90
62555;DHT22;48610;52.144;8.624;2023-11-21T04:41:37;9.50;99.90
62555;DHT22;48610;52.144;8.624;2023-11-21T04:44:39;9.50;99.90
62555;DHT22;48610;52.144;8.624;2023-11-21T04:47:41;9.50;99.90
62555;DHT22;48610;52.144;8.624;2023-11-21T04:50:42;9.50;99.90
62555;DHT22;48610;52.144;8.624;2023-11-21T04:53:42;9.40;99.90
62555;DHT22;48610;52.144;8.624;2023-11-21T04:56:43;9.40;99.90
62555;DHT22;48610;52.144;8.624;2023-11-21T04:59:43;9.40;99.90
62555;DHT22;48610;52.144;8.624;2023-11-21T05:02:45;9.20;99.90
62555;DHT22;48610;52.144;8.624;2023-11-21T05:05:46;9.20;99.90
62555;DHT22;48610;52.144;8.624;2023-11-21T05:08:46;9.30;99.90
62555;DHT22;48610;52.144;8.624;2023-11-21T05:11:47;9.30;99.90
62555;DHT22;48610;52.144;8.624;2023-11-21T05:14:48;9.20;99.90
62555;DHT22;48610;52.144;8.624;2023-11-21T05:17:49;9.30;99.90
62555;DHT22;48610;52.144;8.624;2023-11-21T05:20:50;9.30;99.90
62555;DHT22;48610;52.144;8.624;2023-11-21T05:23:51;9.30;99.90
62555;DHT22;48610;52.144;8.624;2023-11-21T05:26:51;9.30;99.90
62555;DHT22;48610;52.144;8.624;2023-11-21T05:29:52;9.30;99.90
62555;DHT22;48610;52.144;8.624;2023-11-21T05:32:52;9.30;99.90
62555;DHT22;48610;52.144;8.624;2023-11-21T05:35:53;9.20;99.90
62555;DHT22;48610;52.144;8.624;2023-11-21T05:38:54;9.30;99.90
62555;DHT22;48610;52.144;8.624;2023-11-21T05:41:54;9.30;99.90
62555;DHT22;48610;52.144;8.624;2023-11-21T05:44:55;9.40;99.90
62555;DHT22;48610;52.144;8.624;2023-11-21T05:47:59;9.40;99.90
62555;DHT22;48610;52.144;8.624;2023-11-21T05:51:00;9.40;99.90
62555;DHT22;48610;52.144;8.624;2023-11-21T05:54:02;9.40;99.90
62555;DHT22;48610;52.144;8.624;2023-11-21T05:57:03;9.40;99.90
62555;DHT22;48610;52.144;8.624;2023-11-21T06:03:11;9.40;99.90
62555;DHT22;48610;52.144;8.624;2023-11-21T06:06:12;9.40;99.90
62555;DHT22;48610;52.144;8.624;2023-11-21T06:09:13;9.40;99.90
62555;DHT22;48610;52.144;8.624;2023-11-21T06:12:13;9.50;99.90
62555;DHT22;48610;52.144;8.624;2023-11-21T06:15:14;9.50;99.90
62555;DHT22;48610;52.144;8.624;2023-11-21T06:18:16;9.50;99.90
62555;DHT22;48610;52.144;8.624;2023-11-21T06:21:16;9.50;99.90
62555;DHT22;48610;52.144;8.624;2023-11-21T06:24:18;9.50;99.90
62555;DHT22;48610;52.144;8.624;2023-11-21T06:27:21;9.50;99.90
62555;DHT22;48610;52.144;8.624;2023-11-21T06:30:21;9.50;99.90
62555;DHT22;48610;52.144;8.624;2023-11-21T06:33:23;9.40;99.90
62555;DHT22;48610;52.144;8.624;2023-11-21T06:36:26;9.40;99.90
62555;DHT22;48610;52.144;8.624;2023-11-21T06:39:29;9.40;99.90
62555;DHT22;48610;52.144;8.624;2023-11-21T06:42:30;9.40;99.90
62555;DHT22;48610;52.144;8.624;2023-11-21T06:45:31;9.30;99.90
62555;DHT22;48610;52.144;8.624;2023-11-21T06:48:31;9.20;99.90
62555;DHT22;48610;52.144;8.624;2023-11-21T06:51:32;9.20;99.90
62555;DHT22;48610;52.144;8.624;2023-11-21T06:54:32;9.20;99.90
62555;DHT22;48610;52.144;8.624;2023-11-21T06:57:33;9.20;99.90
62555;DHT22;48610;52.144;8.624;2023-11-21T07:00:34;9.30;99.90
62555;DHT22;48610;52.144;8.624;2023-11-21T07:03:34;9.20;99.90
62555;DHT22;48610;52.144;8.624;2023-11-21T07:06:35;9.20;99.90
62555;DHT22;48610;52.144;8.624;2023-11-21T07:09:35;9.20;99.90
62555;DHT22;48610;52.144;8.624;2023-11-21T07:12:36;9.20;99.90
62555;DHT22;48610;52.144;8.624;2023-11-21T07:15:37;9.20;99.90
62555;DHT22;48610;52.144;8.624;2023-11-21T07:18:38;9.20;99.90
62555;DHT22;48610;52.144;8.624;2023-11-21T07:21:39;9.20;99.90
62555;DHT22;48610;52.144;8.624;2023-11-21T07:24:40;9.20;99.90
62555;DHT22;48610;52.144;8.624;2023-11-21T07:27:41;9.10;99.90
62555;DHT22;48610;52.144;8.624;2023-11-21T07:30:41;9.10;99.90
62555;DHT22;48610;52.144;8.624;2023-11-21T07:33:43;9.00;99.90
62555;DHT22;48610;52.144;8.624;2023-11-21T07:36:43;9.10;99.90
62555;DHT22;48610;52.144;8.624;2023-11-21T07:39:44;9.10;99.90
62555;DHT22;48610;52.144;8.624;2023-11-21T07:42:44;9.10;99.90
62555;DHT22;48610;52.144;8.624;2023-11-21T07:45:45;9.00;99.90
62555;DHT22;48610;52.144;8.624;2023-11-21T07:48:46;9.10;99.90
62555;DHT22;48610;52.144;8.624;2023-11-21T07:51:46;9.10;99.90
62555;DHT22;48610;52.144;8.624;2023-11-21T07:54:47;9.10;99.90
62555;DHT22;48610;52.144;8.624;2023-11-21T07:57:47;9.20;99.90
62555;DHT22;48610;52.144;8.624;2023-11-21T08:00:52;9.20;99.90
62555;DHT22;48610;52.144;8.624;2023-11-21T08:03:52;9.30;99.90
62555;DHT22;48610;52.144;8.624;2023-11-21T08:06:53;9.20;99.90
62555;DHT22;48610;52.144;8.624;2023-11-21T08:09:53;9.20;99.90
62555;DHT22;48610;52.144;8.624;2023-11-21T08:12:54;9.30;99.90
62555;DHT22;48610;52.144;8.624;2023-11-21T08:15:55;9.30;99.90
62555;DHT22;48610;52.144;8.624;2023-11-21T08:18:56;9.20;99.90
62555;DHT22;48610;52.144;8.624;2023-11-21T08:21:57;9.30;99.90
62555;DHT22;48610;52.144;8.624;2023-11-21T08:24:59;9.30;99.90
62555;DHT22;48610;52.144;8.624;2023-11-21T08:28:00;9.40;99.90
62555;DHT22;48610;52.144;8.624;2023-11-21T08:31:01;9.30;99.90
62555;DHT22;48610;52.144;8.624;2023-11-21T08:34:02;9.40;99.90
62555;DHT22;48610;52.144;8.624;2023-11-21T08:37:03;9.40;99.90
62555;DHT22;48610;52.144;8.624;2023-11-21T08:40:05;9.40;99.90
62555;DHT22;48610;52.144;8.624;2023-11-21T08:43:09;9.40;99.90
62555;DHT22;48610;52.144;8.624;2023-11-21T08:46:12;9.40;99.90
62555;DHT22;48610;52.144;8.624;2023-11-21T08:49:13;9.40;99.90
62555;DHT22;48610;52.144;8.624;2023-11-21T08:52:15;9.30;99.90
62555;DHT22;48610;52.144;8.624;2023-11-21T08:55:17;9.20;99.90
62555;DHT22;48610;52.144;8.624;2023-11-21T08:58:17;9.20;99.90
62555;DHT22;48610;52.144;8.624;2023-11-21T09:01:18;9.20;99.90
62555;DHT22;48610;52.144;8.624;2023-11-21T09:04:19;9.20;99.90
62555;DHT22;48610;52.144;8.624;2023-11-21T09:07:19;9.10;99.90
62555;DHT22;48610;52.144;8.624;2023-11-21T09:10:20;9.20;99.90
62555;DHT22;48610;52.144;8.624;2023-11-21T09:13:21;9.10;99.90
62555;DHT22;48610;52.144;8.624;2023-11-21T09:16:22;9.00;99.90
62555;DHT22;48610;52.144;8.624;2023-11-21T09:19:23;9.00;99.90
62555;DHT22;48610;52.144;8.624;2023-11-21T09:22:23;9.00;99.90
62555;DHT22;48610;52.144;8.624;2023-11-21T09:25:30;9.10;99.90
62555;DHT22;48610;52.144;8.624;2023-11-21T09:28:30;8.90;99.90
62555;DHT22;48610;52.144;8.624;2023-11-21T09:31:31;8.80;99.90
62555;DHT22;48610;52.144;8.624;2023-11-21T09:34:34;8.90;99.90
62555;DHT22;48610;52.144;8.624;2023-11-21T09:37:38;8.80;99.90
62555;DHT22;48610;52.144;8.624;2023-11-21T09:40:39;8.80;99.90
62555;DHT22;48610;52.144;8.624;2023-11-21T09:43:40;9.00;99.90
62555;DHT22;48610;52.144;8.624;2023-11-21T09:46:42;9.00;99.90
62555;DHT22;48610;52.144;8.624;2023-11-21T09:49:48;8.90;99.90
62555;DHT22;48610;52.144;8.624;2023-11-21T09:55:53;8.90;99.90
62555;DHT22;48610;52.144;8.624;2023-11-21T09:58:54;8.80;99.90
62555;DHT22;48610;52.144;8.624;2023-11-21T10:01:57;8.90;99.90
62555;DHT22;48610;52.144;8.624;2023-11-21T10:05:02;8.70;99.90
62555;DHT22;48610;52.144;8.624;2023-11-21T10:08:07;8.70;99.90
62555;DHT22;48610;52.144;8.624;2023-11-21T10:11:09;8.70;99.90
62555;DHT22;48610;52.144;8.624;2023-11-21T10:14:12;8.70;99.90
62555;DHT22;48610;52.144;8.624;2023-11-21T10:17:14;8.60;99.90
62555;DHT22;48610;52.144;8.624;2023-11-21T10:20:16;8.60;99.90
62555;DHT22;48610;52.144;8.624;2023-11-21T10:23:22;8.60;99.90
62555;DHT22;48610;52.144;8.624;2023-11-21T10:26:23;8.70;99.90
62555;DHT22;48610;52.144;8.624;2023-11-21T10:29:24;8.70;99.90
62555;DHT22;48610;52.144;8.624;2023-11-21T10:32:30;8.60;99.90
62555;DHT22;48610;52.144;8.624;2023-11-21T10:35:47;8.50;99.90
62555;DHT22;48610;52.144;8.624;2023-11-21T10:38:51;8.50;99.90
62555;DHT22;48610;52.144;8.624;2023-11-21T10:41:55;8.50;99.90
62555;DHT22;48610;52.144;8.624;2023-11-21T10:44:55;8.40;99.90
62555;DHT22;48610;52.144;8.624;2023-11-21T10:47:56;8.50;99.90
62555;DHT22;48610;52.144;8.624;2023-11-21T10:50:57;8.60;99.90
62555;DHT22;48610;52.144;8.624;2023-11-21T10:53:59;8.60;99.90
62555;DHT22;48610;52.144;8.624;2023-11-21T10:57:00;8.60;99.90
62555;DHT22;48610;52.144;8.624;2023-11-21T11:00:02;8.50;99.90
62555;DHT22;48610;52.144;8.624;2023-11-21T11:03:04;8.40;99.90
62555;DHT22;48610;52.144;8.624;2023-11-21T11:06:05;8.30;99.90
62555;DHT22;48610;52.144;8.624;2023-11-21T11:09:14;8.20;99.90
62555;DHT22;48610;52.144;8.624;2023-11-21T11:12:16;8.10;99.90
62555;DHT22;48610;52.144;8.624;2023-11-21T11:15:19;8.10;99.90
62555;DHT22;48610;52.144;8.624;2023-11-21T11:18:20;8.10;99.90
62555;DHT22;48610;52.144;8.624;2023-11-21T11:21:36;8.10;99.90
62555;DHT22;48610;52.144;8.624;2023-11-21T11:28:11;8.20;99.90
62555;DHT22;48610;52.144;8.624;2023-11-21T11:34:34;8.10;99.90
62555;DHT22;48610;52.144;8.624;2023-11-21T11:37:37;8.20;99.90
62555;DHT22;48610;52.144;8.624;2023-11-21T11:40:47;8.10;99.90
62555;DHT22;48610;52.144;8.624;2023-11-21T11:43:48;8.00;99.90
62555;DHT22;48610;52.144;8.624;2023-11-21T11:46:52;8.10;99.90
62555;DHT22;48610;52.144;8.624;2023-11-21T11:50:09;8.20;99.90
62555;DHT22;48610;52.144;8.624;2023-11-21T11:53:21;8.20;99.90
62555;DHT22;48610;52.144;8.624;2023-11-21T11:56:25;8.00;99.90
62555;DHT22;48610;52.144;8.624;2023-11-21T11:59:26;8.10;99.90
62555;DHT22;48610;52.144;8.624;2023-11-21T12:02:26;7.90;99.90
62555;DHT22;48610;52.144;8.624;2023-11-21T12:05:27;7.90;99.90
62555;DHT22;48610;52.144;8.624;2023-11-21T12:08:28;7.90;99.90
62555;DHT22;48610;52.144;8.624;2023-11-21T12:11:32;8.00;99.90
62555;DHT22;48610;52.144;8.624;2023-11-21T12:14:33;8.10;99.90
62555;DHT22;48610;52.144;8.624;2023-11-21T12:17:34;8.10;99.90
62555;DHT22;48610;52.144;8.624;2023-11-21T12:20:34;8.00;99.90
62555;DHT22;48610;52.144;8.624;2023-11-21T12:23:39;8.00;99.90
62555;DHT22;48610;52.144;8.624;2023-11-21T12:26:41;8.20;99.90
62555;DHT22;48610;52.144;8.624;2023-11-21T12:29:41;8.20;99.90
62555;DHT22;48610;52.144;8.624;2023-11-21T12:32:43;8.10;99.90
62555;DHT22;48610;52.144;8.624;2023-11-21T12:35:44;8.10;99.90
62555;DHT22;48610;52.144;8.624;2023-11-21T12:38:45;8.20;99.90
62555;DHT22;48610;52.144;8.624;2023-11-21T12:41:46;8.30;99.90
62555;DHT22;48610;52.144;8.624;2023-11-21T12:44:46;8.40;99.90
62555;DHT22;48610;52.144;8.624;2023-11-21T12:47:49;8.60;99.90
62555;DHT22;48610;52.144;8.624;2023-11-21T12:50:53;8.70;99.90
62555;DHT22;48610;52.144;8.624;2023-11-21T12:53:56;8.90;99.90
62555;DHT22;48610;52.144;8.624;2023-11-21T12:56:59;8.90;99.90
62555;DHT22;48610;52.144;8.624;2023-11-21T13:00:00;8.90;99.90
62555;DHT22;48610;52.144;8.624;2023-11-21T13:03:07;9.00;99.90
62555;DHT22;48610;52.144;8.624;2023-11-21T13:06:08;9.00;99.90
62555;DHT22;48610;52.144;8.624;2023-11-21T13:09:09;9.00;99.90
62555;DHT22;48610;52.144;8.624;2023-11-21T13:12:16;9.10;99.90
62555;DHT22;48610;52.144;8.624;2023-11-21T13:15:19;9.00;99.90
62555;DHT22;48610;52.144;8.624;2023-11-21T13:18:20;9.10;99.90
62555;DHT22;48610;52.144;8.624;2023-11-21T13:21:22;8.90;99.90
62555;DHT22;48610;52.144;8.624;2023-11-21T13:24:22;8.90;99.90
62555;DHT22;48610;52.144;8.624;2023-11-21T13:27:23;8.70;99.90
62555;DHT22;48610;52.144;8.624;2023-11-21T13:30:26;8.70;99.90
62555;DHT22;48610;52.144;8.624;2023-11-21T13:33:28;8.50;99.90
62555;DHT22;48610;52.144;8.624;2023-11-21T13:36:28;8.30;99.90
62555;DHT22;48610;52.144;8.624;2023-11-21T13:39:32;8.40;99.90
62555;DHT22;48610;52.144;8.624;2023-11-21T13:42:33;8.50;99.90
62555;DHT22;48610;52.144;8.624;2023-11-21T13:45:33;8.60;99.90
62555;DHT22;48610;52.144;8.624;2023-11-21T13:48:35;8.70;99.90
62555;DHT22;48610;52.144;8.624;2023-11-21T13:51:42;8.50;99.90
62555;DHT22;48610;52.144;8.624;2023-11-21T13:54:48;8.40;99.90
62555;DHT22;48610;52.144;8.624;2023-11-21T13:57:48;8.40;99.90
62555;DHT22;48610;52.144;8.624;2023-11-21T14:00:52;8.40;99.90
62555;DHT22;48610;52.144;8.624;2023-11-21T14:04:00;8.20;99.90
62555;DHT22;48610;52.144;8.624;2023-11-21T14:07:16;8.10;99.90
62555;DHT22;48610;52.144;8.624;2023-11-21T14:10:35;8.10;99.90
62555;DHT22;48610;52.144;8.624;2023-11-21T14:13:43;8.10;99.90
62555;DHT22;48610;52.144;8.624;2023-11-21T14:16:47;8.10;99.90
62555;DHT22;48610;52.144;8.624;2023-11-21T14:19:49;8.10;99.90
62555;DHT22;48610;52.144;8.624;2023-11-21T14:22:50;8.00;99.90
62555;DHT22;48610;52.144;8.624;2023-11-21T14:25:52;8.00;99.90
62555;DHT22;48610;52.144;8.624;2023-11-21T14:28:52;8.10;99.90
62555;DHT22;48610;52.144;8.624;2023-11-21T14:31:54;8.10;99.90
62555;DHT22;48610;52.144;8.624;2023-11-21T14:34:58;8.10;99.90
62555;DHT22;48610;52.144;8.624;2023-11-21T14:37:59;8.10;99.90
62555;DHT22;48610;52.144;8.624;2023-11-21T14:41:00;8.10;99.90
62555;DHT22;48610;52.144;8.624;2023-11-21T14:44:01;8.00;99.90
62555;DHT22;48610;52.144;8.624;2023-11-21T14:47:04;8.00;99.90
62555;DHT22;48610;52.144;8.624;2023-11-21T14:50:08;7.90;99.90
62555;DHT22;48610;52.144;8.624;2023-11-21T14:53:28;7.80;99.90
62555;DHT22;48610;52.144;8.624;2023-11-21T14:56:43;7.80;99.90
62555;DHT22;48610;52.144;8.624;2023-11-21T14:59:47;7.90;99.90
62555;DHT22;48610;52.144;8.624;2023-11-21T15:02:51;7.80;99.90
62555;DHT22;48610;52.144;8.624;2023-11-21T15:05:51;7.80;99.90
62555;DHT22;48610;52.144;8.624;2023-11-21T15:08:54;7.80;99.90
62555;DHT22;48610;52.144;8.624;2023-11-21T15:12:18;7.80;99.90
62555;DHT22;48610;52.144;8.624;2023-11-21T15:15:20;7.80;99.90
62555;DHT22;48610;52.144;8.624;2023-11-21T15:18:22;7.70;99.90
62555;DHT22;48610;52.144;8.624;2023-11-21T15:21:23;7.70;99.90
62555;DHT22;48610;52.144;8.624;2023-11-21T15:24:24;7.70;99.90
62555;DHT22;48610;52.144;8.624;2023-11-21T15:27:25;7.70;99.90
62555;DHT22;48610;52.144;8.624;2023-11-21T15:30:28;7.80;99.90
62555;DHT22;48610;52.144;8.624;2023-11-21T15:33:31;7.80;99.90
62555;DHT22;48610;52.144;8.624;2023-11-21T15:36:32;7.80;99.90
62555;DHT22;48610;52.144;8.624;2023-11-21T15:39:33;7.80;99.90
62555;DHT22;48610;52.144;8.624;2023-11-21T15:42:33;7.80;99.90
62555;DHT22;48610;52.144;8.624;2023-11-21T15:45:34;7.90;99.90
62555;DHT22;48610;52.144;8.624;2023-11-21T15:48:35;7.90;99.90
62555;DHT22;48610;52.144;8.624;2023-11-21T15:51:40;7.80;99.90
62555;DHT22;48610;52.144;8.624;2023-11-21T15:54:41;7.90;99.90
62555;DHT22;48610;52.144;8.624;2023-11-21T15:57:41;8.00;99.90
62555;DHT22;48610;52.144;8.624;2023-11-21T16:00:42;7.90;99.90
62555;DHT22;48610;52.144;8.624;2023-11-21T16:03:43;7.80;99.90
62555;DHT22;48610;52.144;8.624;2023-11-21T16:06:47;7.90;99.90
62555;DHT22;48610;52.144;8.624;2023-11-21T16:09:48;7.90;99.90
62555;DHT22;48610;52.144;8.624;2023-11-21T16:12:50;7.90;99.90
62555;DHT22;48610;52.144;8.624;2023-11-21T16:15:50;7.80;99.90
62555;DHT22;48610;52.144;8.624;2023-11-21T16:18:51;7.90;99.90
62555;DHT22;48610;52.144;8.624;2023-11-21T16:21:52;7.80;99.90
62555;DHT22;48610;52.144;8.624;2023-11-21T16:24:53;7.80;99.90
62555;DHT22;48610;52.144;8.624;2023-11-21T16:27:53;7.80;99.90
62555;DHT22;48610;52.144;8.624;2023-11-21T16:30:56;7.80;99.90
62555;DHT22;48610;52.144;8.624;2023-11-21T16:33:57;7.90;99.90
62555;DHT22;48610;52.144;8.624;2023-11-21T16:36:58;7.90;99.90
62555;DHT22;48610;52.144;8.624;2023-11-21T16:39:59;7.90;99.90
62555;DHT22;48610;52.144;8.624;2023-11-21T16:43:00;7.80;99.90
62555;DHT22;48610;52.144;8.624;2023-11-21T16:46:00;7.90;99.90
62555;DHT22;48610;52.144;8.624;2023-11-21T16:49:01;8.00;99.90
62555;DHT22;48610;52.144;8.624;2023-11-21T16:52:02;8.10;99.90
62555;DHT22;48610;52.144;8.624;2023-11-21T16:55:03;8.00;99.90
62555;DHT22;48610;52.144;8.624;2023-11-21T16:58:04;8.10;99.90
62555;DHT22;48610;52.144;8.624;2023-11-21T17:01:05;8.00;99.90
62555;DHT22;48610;52.144;8.624;2023-11-21T17:04:08;7.90;99.90
62555;DHT22;48610;52.144;8.624;2023-11-21T17:07:09;7.90;99.90
62555;DHT22;48610;52.144;8.624;2023-11-21T17:10:11;7.90;99.90
62555;DHT22;48610;52.144;8.624;2023-11-21T17:13:12;7.80;99.90
62555;DHT22;48610;52.144;8.624;2023-11-21T17:16:13;7.80;99.90
62555;DHT22;48610;52.144;8.624;2023-11-21T17:19:14;7.70;99.90
62555;DHT22;48610;52.144;8.624;2023-11-21T17:22:14;7.70;99.90
62555;DHT22;48610;52.144;8.624;2023-11-21T17:25:15;7.60;99.90
62555;DHT22;48610;52.144;8.624;2023-11-21T17:28:16;7.60;99.90
62555;DHT22;48610;52.144;8.624;2023-11-21T17:31:17;7.70;99.90
62555;DHT22;48610;52.144;8.624;2023-11-21T17:34:19;7.70;99.90
62555;DHT22;48610;52.144;8.624;2023-11-21T17:37:20;7.70;99.90
62555;DHT22;48610;52.144;8.624;2023-11-21T17:40:21;7.70;99.90
62555;DHT22;48610;52.144;8.624;2023-11-21T17:43:22;7.60;99.90
62555;DHT22;48610;52.144;8.624;2023-11-21T17:46:22;7.70;99.90
62555;DHT22;48610;52.144;8.624;2023-11-21T17:49:23;7.70;99.90
62555;DHT22;48610;52.144;8.624;2023-11-21T17:52:24;7.70;99.90
62555;DHT22;48610;52.144;8.624;2023-11-21T17:55:25;7.50;99.90
62555;DHT22;48610;52.144;8.624;2023-11-21T17:58:26;7.40;99.90
62555;DHT22;48610;52.144;8.624;2023-11-21T18:01:28;7.40;99.90
62555;DHT22;48610;52.144;8.624;2023-11-21T18:04:34;7.40;99.90
62555;DHT22;48610;52.144;8.624;2023-11-21T18:07:35;7.50;99.90
62555;DHT22;48610;52.144;8.624;2023-11-21T18:10:36;7.40;99.90
62555;DHT22;48610;52.144;8.624;2023-11-21T18:13:36;7.40;99.90
62555;DHT22;48610;52.144;8.624;2023-11-21T18:16:37;7.30;99.90
62555;DHT22;48610;52.144;8.624;2023-11-21T18:19:38;7.20;99.90
62555;DHT22;48610;52.144;8.624;2023-11-21T18:22:39;7.20;99.90
62555;DHT22;48610;52.144;8.624;2023-11-21T18:25:40;7.00;99.90
62555;DHT22;48610;52.144;8.624;2023-11-21T18:28:41;7.00;99.90
62555;DHT22;48610;52.144;8.624;2023-11-21T18:31:42;7.00;99.90
62555;DHT22;48610;52.144;8.624;2023-11-21T18:34:42;7.10;99.90
62555;DHT22;48610;52.144;8.624;2023-11-21T18:37:46;7.10;99.90
62555;DHT22;48610;52.144;8.624;2023-11-21T18:40:47;7.10;99.90
62555;DHT22;48610;52.144;8.624;2023-11-21T18:43:48;7.20;99.90
62555;DHT22;48610;52.144;8.624;2023-11-21T18:46:48;7.20;99.90
62555;DHT22;48610;52.144;8.624;2023-11-21T18:49:50;7.10;99.90
62555;DHT22;48610;52.144;8.624;2023-11-21T18:52:50;7.10;99.90
62555;DHT22;48610;52.144;8.624;2023-11-21T18:55:51;7.10;99.90
62555;DHT22;48610;52.144;8.624;2023-11-21T18:58:52;7.20;99.90
62555;DHT22;48610;52.144;8.624;2023-11-21T19:01:53;7.00;99.90
62555;DHT22;48610;52.144;8.624;2023-11-21T19:04:53;6.90;99.90
62555;DHT22;48610;52.144;8.624;2023-11-21T19:07:54;7.00;99.90
62555;DHT22;48610;52.144;8.624;2023-11-21T19:10:55;7.00;99.90
62555;DHT22;48610;52.144;8.624;2023-11-21T19:13:55;7.00;99.90
62555;DHT22;48610;52.144;8.624;2023-11-21T19:16:56;7.00;99.90
62555;DHT22;48610;52.144;8.624;2023-11-21T19:19:56;7.10;99.90
62555;DHT22;48610;52.144;8.624;2023-11-21T19:22:57;7.20;99.90
62555;DHT22;48610;52.144;8.624;2023-11-21T19:25:59;7.10;99.90
62555;DHT22;48610;52.144;8.624;2023-11-21T19:28:59;7.10;99.90
62555;DHT22;48610;52.144;8.624;2023-11-21T19:32:00;7.20;99.90
62555;DHT22;48610;52.144;8.624;2023-11-21T19:35:01;7.00;99.90
62555;DHT22;48610;52.144;8.624;2023-11-21T19:38:01;7.00;99.90